createdAt,value
2022-11-03T00:02:13.462Z,2.92
2022-11-03T00:04:43.692Z,2.83
2022-11-03T00:07:13.870Z,9.03
2022-11-03T00:09:44.753Z,2.80
2022-11-03T00:12:17.556Z,2.90
2022-11-03T00:14:47.613Z,2.50
2022-11-03T00:17:17.631Z,2.42
2022-11-03T00:19:47.754Z,3.03
2022-11-03T00:22:17.958Z,2.93
2022-11-03T00:24:48.020Z,2.43
2022-11-03T00:27:20.847Z,3.20
2022-11-03T00:29:50.944Z,2.85
2022-11-03T00:32:21.084Z,2.67
2022-11-03T00:34:51.248Z,2.97
2022-11-03T00:37:21.385Z,3.90
2022-11-03T00:39:51.518Z,3.15
2022-11-03T00:42:24.319Z,3.30
2022-11-03T00:44:54.525Z,2.92
2022-11-03T00:47:24.632Z,2.60
2022-11-03T00:49:54.754Z,3.50
2022-11-03T00:52:24.801Z,2.60
2022-11-03T00:54:55.381Z,2.75
2022-11-03T00:57:28.291Z,2.50
2022-11-03T00:59:58.466Z,2.70
2022-11-03T01:02:28.682Z,2.07
2022-11-03T01:05:11.220Z,2.83
2022-11-03T01:07:41.244Z,3.00
2022-11-03T01:10:11.953Z,2.53
2022-11-03T01:12:42.025Z,3.00
2022-11-03T01:15:12.591Z,2.60
2022-11-03T01:17:43.639Z,2.38
2022-11-03T01:20:14.490Z,2.53
2022-11-03T01:22:44.578Z,2.50
2022-11-03T01:25:14.593Z,2.78
2022-11-03T01:27:47.308Z,2.47
2022-11-03T01:30:17.703Z,2.38
2022-11-03T01:32:47.873Z,2.50
2022-11-03T01:35:18.196Z,2.87
2022-11-03T01:37:48.223Z,2.33
2022-11-03T01:40:18.386Z,2.25
2022-11-03T01:42:51.054Z,2.63
2022-11-03T01:45:21.310Z,2.33
2022-11-03T01:47:51.395Z,2.40
2022-11-03T01:50:23.224Z,3.20
2022-11-03T01:52:58.360Z,2.78
2022-11-03T01:55:33.126Z,2.92
2022-11-03T01:58:10.401Z,2.90
2022-11-03T02:00:41.236Z,2.58
2022-11-03T02:03:11.435Z,2.80
2022-11-03T02:05:43.314Z,2.70
2022-11-03T02:08:19.099Z,2.20
2022-11-03T02:10:51.234Z,2.67
2022-11-03T02:13:27.498Z,3.08
2022-11-03T02:16:00.849Z,2.50
2022-11-03T02:18:36.002Z,2.50
2022-11-03T02:21:21.139Z,2.15
2022-11-03T02:24:02.358Z,2.50
2022-11-03T02:29:05.315Z,2.10
2022-11-03T02:31:44.635Z,2.75
2022-11-03T02:34:23.256Z,2.28
2022-11-03T02:36:59.075Z,2.63
2022-11-03T02:39:37.945Z,2.30
2022-11-03T02:42:12.741Z,2.60
2022-11-03T02:44:45.127Z,2.15
2022-11-03T02:47:17.417Z,2.42
2022-11-03T02:49:50.728Z,2.75
2022-11-03T02:52:43.344Z,2.97
2022-11-03T02:55:19.182Z,2.83
2022-11-03T02:57:58.029Z,2.92
2022-11-03T03:00:28.085Z,2.78
2022-11-03T03:03:06.470Z,2.95
2022-11-03T03:05:39.625Z,2.95
2022-11-03T03:08:13.323Z,2.38
2022-11-03T03:10:47.621Z,2.20
2022-11-03T03:13:23.495Z,2.30
2022-11-03T03:16:08.796Z,2.25
2022-11-03T03:18:51.146Z,2.78
2022-11-03T03:21:26.992Z,1.98
2022-11-03T03:24:02.444Z,2.15
2022-11-03T03:26:38.561Z,2.15
2022-11-03T03:29:17.992Z,2.05
2022-11-03T03:31:54.630Z,2.38
2022-11-03T03:34:36.315Z,2.30
2022-11-03T03:37:09.591Z,2.42
2022-11-03T03:39:44.461Z,4.13
2022-11-03T03:42:17.934Z,27.05
2022-11-03T03:44:51.895Z,4.40
2022-11-03T03:47:26.729Z,2.42
2022-11-03T03:49:56.835Z,2.50
2022-11-03T03:52:27.788Z,2.28
2022-11-03T03:54:59.002Z,2.40
2022-11-03T04:00:04.427Z,2.08
2022-11-03T04:02:42.517Z,2.22
2022-11-03T04:05:12.562Z,3.20
2022-11-03T04:07:51.837Z,3.17
2022-11-03T04:10:25.396Z,2.50
2022-11-03T04:13:07.901Z,2.50
2022-11-03T04:15:53.149Z,7.90
2022-11-03T04:18:37.441Z,20.98
2022-11-03T04:21:20.630Z,3.22
2022-11-03T04:23:50.655Z,1.90
2022-11-03T04:26:23.756Z,2.60
2022-11-03T04:28:56.045Z,1.80
2022-11-03T04:31:31.522Z,1.90
2022-11-03T04:34:01.856Z,2.85
2022-11-03T04:36:32.612Z,1.67
2022-11-03T04:39:02.741Z,1.77
2022-11-03T04:41:36.093Z,1.80
2022-11-03T04:44:15.109Z,1.75
2022-11-03T04:46:49.223Z,19.13
2022-11-03T04:49:26.890Z,14.05
2022-11-03T04:51:57.111Z,3.63
2022-11-03T04:54:27.298Z,1.60
2022-11-03T04:56:57.375Z,1.70
2022-11-03T04:59:28.821Z,1.90
2022-11-03T05:02:02.465Z,1.70
2022-11-03T05:04:32.843Z,2.00
2022-11-03T05:07:03.034Z,1.47
2022-11-03T05:09:38.921Z,2.07
2022-11-03T05:12:12.948Z,1.90
2022-11-03T05:14:43.004Z,1.77
2022-11-03T05:17:26.611Z,1.63
2022-11-03T05:20:04.498Z,1.90
2022-11-03T05:22:39.067Z,2.08
2022-11-03T05:25:38.076Z,20.83
2022-11-03T05:28:21.757Z,16.48
2022-11-03T05:30:53.433Z,3.55
2022-11-03T05:33:32.415Z,2.35
2022-11-03T05:36:10.924Z,1.95
2022-11-03T05:38:40.991Z,2.30
2022-11-03T05:41:19.527Z,1.77
2022-11-03T05:43:56.686Z,1.70
2022-11-03T05:46:27.459Z,2.40
2022-11-03T05:49:00.902Z,2.30
2022-11-03T05:51:36.312Z,2.28
2022-11-03T05:54:17.041Z,3.13
2022-11-03T05:56:50.654Z,2.58
2022-11-03T06:01:57.253Z,2.20
2022-11-03T06:04:36.932Z,2.17
2022-11-03T06:07:19.602Z,2.58
2022-11-03T06:09:49.679Z,2.42
2022-11-03T06:12:23.960Z,2.10
2022-11-03T06:14:55.076Z,3.72
2022-11-03T06:20:02.527Z,2.55
2022-11-03T06:22:35.005Z,2.25
2022-11-03T06:25:22.080Z,2.45
2022-11-03T06:27:52.828Z,2.33
2022-11-03T06:30:27.839Z,2.30
2022-11-03T06:33:01.754Z,2.20
2022-11-03T06:35:34.434Z,2.45
2022-11-03T06:38:04.897Z,2.65
2022-11-03T06:40:39.955Z,2.15
2022-11-03T06:43:25.771Z,2.10
2022-11-03T06:45:58.932Z,2.65
2022-11-03T06:48:31.647Z,3.13
2022-11-03T06:51:05.132Z,2.33
2022-11-03T06:53:36.822Z,2.15
2022-11-03T06:56:16.085Z,2.20
2022-11-03T06:58:46.352Z,2.70
2022-11-03T07:01:21.620Z,2.20
2022-11-03T07:03:54.111Z,2.05
2022-11-03T07:06:32.565Z,2.28
2022-11-03T07:09:05.103Z,2.40
2022-11-03T07:11:40.377Z,2.45
2022-11-03T07:14:16.366Z,2.33
2022-11-03T07:16:50.875Z,2.10
2022-11-03T07:19:24.436Z,2.10
2022-11-03T07:21:59.720Z,1.85
2022-11-03T07:24:34.025Z,2.05
2022-11-03T07:27:17.828Z,2.03
2022-11-03T07:29:49.071Z,1.83
2022-11-03T07:32:23.664Z,2.05
2022-11-03T07:34:56.821Z,2.20
2022-11-03T07:37:29.837Z,1.90
2022-11-03T07:40:01.669Z,2.88
2022-11-03T07:42:32.048Z,2.20
2022-11-03T07:45:04.241Z,2.08
2022-11-03T07:47:34.363Z,2.00
2022-11-03T07:50:06.333Z,1.97
2022-11-03T07:52:40.154Z,2.85
2022-11-03T07:55:16.200Z,1.98
2022-11-03T07:57:47.186Z,2.97
2022-11-03T08:02:58.057Z,3.38
2022-11-03T08:05:28.193Z,2.72
2022-11-03T08:08:00.816Z,2.30
2022-11-03T08:10:31.156Z,2.42
2022-11-03T08:13:01.230Z,2.87
2022-11-03T08:15:31.369Z,3.13
2022-11-03T08:18:01.430Z,2.47
2022-11-03T08:20:31.500Z,2.17
2022-11-03T08:23:24.603Z,2.40
2022-11-03T08:25:54.482Z,7.63
2022-11-03T08:28:24.881Z,2.30
2022-11-03T08:30:55.086Z,1.75
2022-11-03T08:33:25.241Z,2.00
2022-11-03T08:35:55.543Z,2.63
2022-11-03T08:38:28.623Z,1.95
2022-11-03T08:40:59.639Z,2.33
2022-11-03T08:43:29.969Z,2.17
2022-11-03T08:46:08.383Z,2.55
2022-11-03T08:48:43.736Z,2.38
2022-11-03T08:53:50.762Z,2.13
2022-11-03T08:56:22.669Z,2.00
2022-11-03T08:58:53.093Z,2.40
2022-11-03T09:01:23.421Z,1.95
2022-11-03T09:03:53.769Z,2.33
2022-11-03T09:06:24.241Z,1.90
2022-11-03T09:11:47.135Z,2.72
2022-11-03T09:14:17.450Z,2.08
2022-11-03T09:16:47.699Z,2.40
2022-11-03T09:19:17.768Z,1.80
2022-11-03T09:21:47.976Z,1.55
2022-11-03T09:24:20.717Z,1.90
2022-11-03T09:26:50.924Z,2.03
2022-11-03T09:29:21.110Z,2.08
2022-11-03T09:31:51.481Z,1.95
2022-11-03T09:34:21.582Z,2.53
2022-11-03T09:36:53.326Z,3.00
2022-11-03T09:39:26.317Z,2.40
2022-11-03T09:41:59.540Z,1.90
2022-11-03T09:44:30.203Z,2.38
2022-11-03T09:47:00.347Z,2.05
2022-11-03T09:49:31.990Z,2.72
2022-11-03T09:52:02.792Z,2.85
2022-11-03T09:57:15.528Z,2.30
2022-11-03T09:59:48.381Z,2.13
2022-11-03T10:02:26.417Z,2.20
2022-11-03T10:05:00.292Z,6.53
2022-11-03T10:07:33.180Z,2.65
2022-11-03T10:10:06.178Z,2.40
2022-11-03T10:12:39.968Z,2.38
2022-11-03T10:15:18.441Z,2.72
2022-11-03T10:17:50.705Z,4.03
2022-11-03T10:20:24.212Z,3.40
2022-11-03T10:22:56.903Z,2.20
2022-11-03T10:25:40.462Z,2.55
2022-11-03T10:28:22.960Z,3.30
2022-11-03T10:31:14.492Z,4.35
2022-11-03T10:33:54.828Z,2.25
2022-11-03T10:36:29.072Z,2.33
2022-11-03T10:39:01.791Z,2.60
2022-11-03T10:41:35.362Z,2.38
2022-11-03T10:44:09.379Z,1.73
2022-11-03T10:46:55.537Z,5.22
2022-11-03T10:49:25.962Z,2.10
2022-11-03T10:51:57.984Z,2.10
2022-11-03T10:54:28.435Z,2.53
2022-11-03T10:57:01.147Z,2.25
2022-11-03T10:59:37.000Z,2.42
2022-11-03T11:02:18.629Z,2.03
2022-11-03T11:04:51.838Z,2.08
2022-11-03T11:07:26.506Z,3.20
2022-11-03T11:09:57.537Z,6.63
2022-11-03T11:12:30.385Z,2.03
2022-11-03T11:15:02.644Z,1.90
2022-11-03T11:17:45.581Z,1.92
2022-11-03T11:20:38.484Z,2.72
2022-11-03T11:23:52.751Z,2.22
2022-11-03T11:26:45.216Z,2.17
2022-11-03T11:29:48.080Z,2.13
2022-11-03T11:32:59.621Z,2.10
2022-11-03T11:36:29.334Z,2.22
2022-11-03T11:39:01.462Z,2.20
2022-11-03T11:42:08.305Z,2.83
2022-11-03T11:45:03.602Z,2.35
2022-11-03T11:47:52.898Z,2.00
2022-11-03T11:50:32.430Z,2.20
2022-11-03T11:53:16.410Z,1.87
2022-11-03T11:55:52.683Z,2.60
2022-11-03T11:58:43.817Z,2.42
2022-11-03T12:01:32.873Z,2.30
2022-11-03T12:04:09.911Z,1.98
2022-11-03T12:06:42.611Z,1.90
2022-11-03T12:09:20.427Z,2.30
2022-11-03T12:11:55.625Z,2.30
2022-11-03T12:14:29.236Z,1.70
2022-11-03T12:17:23.272Z,1.92
2022-11-03T12:19:54.950Z,1.80
2022-11-03T12:22:43.922Z,2.00
2022-11-03T12:25:40.396Z,2.78
2022-11-03T12:28:10.651Z,2.53
2022-11-03T12:30:40.930Z,2.30
2022-11-03T12:35:43.597Z,3.40
2022-11-03T12:38:13.645Z,2.20
2022-11-03T12:40:43.726Z,2.22
2022-11-03T12:45:43.980Z,2.10
2022-11-03T12:48:16.900Z,2.92
2022-11-03T12:50:47.036Z,2.30
2022-11-03T12:53:17.135Z,2.45
2022-11-03T12:55:47.386Z,2.50
2022-11-03T12:58:17.432Z,2.17
2022-11-03T13:00:52.153Z,2.15
2022-11-03T13:03:28.147Z,7.85
2022-11-03T13:05:58.353Z,2.50
2022-11-03T13:08:28.709Z,2.00
2022-11-03T13:10:58.853Z,2.38
2022-11-03T13:13:29.891Z,2.38
2022-11-03T13:16:00.033Z,2.40
2022-11-03T13:18:32.790Z,2.28
2022-11-03T13:21:02.861Z,2.40
2022-11-03T13:23:32.943Z,2.47
2022-11-03T13:26:03.141Z,2.92
2022-11-03T13:28:33.428Z,2.60
2022-11-03T13:31:03.494Z,2.42
2022-11-03T13:33:36.263Z,2.83
2022-11-03T13:36:06.835Z,3.20
2022-11-03T13:38:37.049Z,3.00
2022-11-03T13:41:08.992Z,2.80
2022-11-03T13:43:39.583Z,3.30
2022-11-03T13:46:09.733Z,2.42
2022-11-03T13:51:32.586Z,2.70
2022-11-03T13:59:43.219Z,2.88
2022-11-03T14:05:11.274Z,2.78
2022-11-03T14:07:41.613Z,3.47
2022-11-03T14:10:13.095Z,3.40
2022-11-03T14:12:40.792Z,3.67
2022-11-03T14:15:13.772Z,3.42
2022-11-03T14:17:44.257Z,3.58
2022-11-03T14:20:17.305Z,3.78
2022-11-03T14:22:47.523Z,3.28
2022-11-03T14:25:20.344Z,4.32
2022-11-03T14:27:50.924Z,4.10
2022-11-03T14:30:21.275Z,4.25
2022-11-03T14:32:56.770Z,3.50
2022-11-03T14:35:32.118Z,3.95
2022-11-03T14:38:02.271Z,3.83
2022-11-03T14:40:44.866Z,5.82
2022-11-03T14:43:15.005Z,4.43
2022-11-03T14:45:45.122Z,3.60
2022-11-03T14:48:15.387Z,4.30
2022-11-03T14:50:48.310Z,3.95
2022-11-03T14:53:18.526Z,5.35
2022-11-03T14:55:48.676Z,4.20
2022-11-03T14:58:19.003Z,4.05
2022-11-03T15:00:49.224Z,4.00
2022-11-03T15:03:19.344Z,3.60
2022-11-03T15:05:54.507Z,4.53
2022-11-03T15:08:26.487Z,4.68
2022-11-03T15:10:56.676Z,5.03
2022-11-03T15:13:26.864Z,4.30
2022-11-03T15:15:57.015Z,4.90
2022-11-03T15:18:27.190Z,5.13
2022-11-03T15:21:00.836Z,4.43
2022-11-03T15:26:21.611Z,4.65
2022-11-03T15:28:51.649Z,10.10
2022-11-03T15:31:23.727Z,6.83
2022-11-03T15:33:54.459Z,5.20
2022-11-03T15:36:27.346Z,4.57
2022-11-03T15:38:57.667Z,4.72
2022-11-03T15:41:27.915Z,5.05
2022-11-03T15:43:58.150Z,5.25
2022-11-03T15:46:28.223Z,5.53
2022-11-03T15:48:58.280Z,5.07
2022-11-03T15:51:31.015Z,5.00
2022-11-03T15:54:01.282Z,6.45
2022-11-03T15:56:31.597Z,5.65
2022-11-03T15:59:01.782Z,5.32
2022-11-03T16:01:31.980Z,5.70
2022-11-03T16:04:02.466Z,5.45
2022-11-03T16:07:01.576Z,5.30
2022-11-03T16:09:25.521Z,9.95
2022-11-03T16:11:55.615Z,5.60
2022-11-03T16:14:25.767Z,6.13
2022-11-03T16:16:56.745Z,5.63
2022-11-03T16:22:00.193Z,5.67
2022-11-03T16:24:35.135Z,5.50
2022-11-03T16:27:06.444Z,5.63
2022-11-03T16:29:36.683Z,6.15
2022-11-03T16:32:06.850Z,8.10
2022-11-03T16:34:36.896Z,6.47
2022-11-03T16:37:09.620Z,6.07
2022-11-03T16:39:39.709Z,6.10
2022-11-03T16:42:09.835Z,6.53
2022-11-03T16:44:39.920Z,7.33
2022-11-03T16:47:09.946Z,6.40
2022-11-03T16:49:41.901Z,6.77
2022-11-03T16:52:14.851Z,7.45
2022-11-03T16:54:44.982Z,8.02
2022-11-03T16:57:15.168Z,8.30
2022-11-03T16:59:45.321Z,9.50
2022-11-03T17:02:16.793Z,9.30
2022-11-03T17:04:47.100Z,9.93
2022-11-03T17:07:19.854Z,9.57
2022-11-03T17:09:49.974Z,9.10
2022-11-03T17:12:20.083Z,9.63
2022-11-03T17:14:52.645Z,9.87
2022-11-03T17:17:25.852Z,10.38
2022-11-03T17:19:56.059Z,9.73
2022-11-03T17:22:28.798Z,10.40
2022-11-03T17:24:58.996Z,10.60
2022-11-03T17:27:32.206Z,11.15
2022-11-03T17:30:09.030Z,10.70
2022-11-03T17:32:42.718Z,10.10
2022-11-03T17:35:21.712Z,10.27
2022-11-03T17:37:56.530Z,10.40
2022-11-03T17:40:29.384Z,10.30
2022-11-03T17:42:59.820Z,10.52
2022-11-03T17:45:30.618Z,11.63
2022-11-03T17:48:00.792Z,10.73
2022-11-03T17:50:30.933Z,10.67
2022-11-03T17:53:05.269Z,10.97
2022-11-03T17:55:37.103Z,11.95
2022-11-03T17:58:08.836Z,11.68
2022-11-03T18:00:39.441Z,11.10
2022-11-03T18:03:15.255Z,25.67
2022-11-03T18:05:45.686Z,16.88
2022-11-03T18:08:20.258Z,11.82
2022-11-03T18:10:53.090Z,11.57
2022-11-03T18:13:26.360Z,11.65
2022-11-03T18:16:07.790Z,11.32
2022-11-03T18:18:41.340Z,11.95
2022-11-03T18:21:17.181Z,11.65
2022-11-03T18:23:50.123Z,13.25
2022-11-03T18:26:23.132Z,11.80
2022-11-03T18:28:54.117Z,11.40
2022-11-03T18:31:27.527Z,11.75
2022-11-03T18:33:57.618Z,13.68
2022-11-03T18:36:27.735Z,12.70
2022-11-03T18:39:01.562Z,17.53
2022-11-03T18:41:41.963Z,10.73
2022-11-03T18:44:22.773Z,11.88
2022-11-03T18:46:55.569Z,10.15
2022-11-03T18:49:27.974Z,9.13
2022-11-03T18:52:03.816Z,14.70
2022-11-03T18:54:38.305Z,15.27
2022-11-03T18:57:08.544Z,13.52
2022-11-03T18:59:42.448Z,9.82
2022-11-03T19:02:20.649Z,9.25
2022-11-03T19:04:51.081Z,8.68
2022-11-03T19:07:35.945Z,9.20
2022-11-03T19:10:13.161Z,24.25
2022-11-03T19:12:45.718Z,14.95
2022-11-03T19:15:23.567Z,7.35
2022-11-03T19:17:59.598Z,7.43
2022-11-03T19:20:29.832Z,10.50
2022-11-03T19:22:59.905Z,10.17
2022-11-03T19:25:32.629Z,8.03
2022-11-03T19:28:02.833Z,7.72
2022-11-03T19:30:32.970Z,6.67
2022-11-03T19:33:03.121Z,6.40
2022-11-03T19:35:36.305Z,5.77
2022-11-03T19:38:12.257Z,5.88
2022-11-03T19:41:06.022Z,5.75
2022-11-03T19:43:35.000Z,5.80
2022-11-03T19:46:06.060Z,5.80
2022-11-03T19:51:09.448Z,10.05
2022-11-03T19:53:44.469Z,6.88
2022-11-03T19:56:20.465Z,5.60
2022-11-03T19:58:50.650Z,6.75
2022-11-03T20:01:20.922Z,5.80
2022-11-03T20:03:51.083Z,6.03
2022-11-03T20:06:21.148Z,6.63
2022-11-03T20:08:52.900Z,7.20
2022-11-03T20:11:25.752Z,6.32
2022-11-03T20:13:57.127Z,6.88
2022-11-03T20:16:27.648Z,5.53
2022-11-03T20:18:57.997Z,6.07
2022-11-03T20:21:34.298Z,6.68
2022-11-03T20:24:05.105Z,5.22
2022-11-03T20:26:37.859Z,6.00
2022-11-03T20:29:15.811Z,16.55
2022-11-03T20:31:47.584Z,18.10
2022-11-03T20:34:18.568Z,7.63
2022-11-03T20:39:21.158Z,5.28
2022-11-03T20:41:56.705Z,5.82
2022-11-03T20:44:26.880Z,5.30
2022-11-03T20:46:56.983Z,5.53
2022-11-03T20:49:27.076Z,5.67
2022-11-03T20:51:57.401Z,5.10
2022-11-03T20:54:27.542Z,5.22
2022-11-03T20:57:00.172Z,5.40
2022-11-03T20:59:32.149Z,5.13
2022-11-03T21:02:04.993Z,6.57
2022-11-03T21:04:36.024Z,18.92
2022-11-03T21:07:06.531Z,9.68
2022-11-03T21:09:36.701Z,5.55
2022-11-03T21:12:13.905Z,5.07
2022-11-03T21:15:06.806Z,5.72
2022-11-03T21:17:49.393Z,5.43
2022-11-03T21:20:19.728Z,6.03
2022-11-03T21:22:52.874Z,6.63
2022-11-03T21:25:25.730Z,6.63
2022-11-03T21:27:59.543Z,23.85
2022-11-03T21:30:29.745Z,8.00
2022-11-03T21:32:59.896Z,7.57
2022-11-03T21:35:30.446Z,7.67
2022-11-03T21:38:00.594Z,10.20
2022-11-03T21:40:30.722Z,7.70
2022-11-03T21:43:15.912Z,7.30
2022-11-03T21:45:46.157Z,6.70
2022-11-03T21:48:29.614Z,6.88
2022-11-03T21:51:03.946Z,7.25
2022-11-03T21:53:34.431Z,9.00
2022-11-03T21:56:04.482Z,9.15
2022-11-03T21:58:37.342Z,18.90
2022-11-03T22:01:09.064Z,10.23
2022-11-03T22:03:41.617Z,10.05
2022-11-03T22:06:13.782Z,9.38
2022-11-03T22:08:47.657Z,10.43
2022-11-03T22:14:02.901Z,11.20
2022-11-03T22:16:40.957Z,11.45
2022-11-03T22:19:27.598Z,10.48
2022-11-03T22:22:10.490Z,10.98
2022-11-03T22:24:53.684Z,11.98
2022-11-03T22:27:24.559Z,12.13
2022-11-03T22:30:09.814Z,12.32
2022-11-03T22:32:40.381Z,13.02
2022-11-03T22:35:25.148Z,27.42
2022-11-03T22:38:07.334Z,14.65
2022-11-03T22:40:51.502Z,15.05
2022-11-03T22:43:46.034Z,15.02
2022-11-03T22:46:20.986Z,15.27
2022-11-03T22:48:51.067Z,15.23
2022-11-03T22:51:21.125Z,14.80
2022-11-03T22:54:03.661Z,17.53
2022-11-03T22:56:33.958Z,17.70
2022-11-03T22:59:04.211Z,15.20
2022-11-03T23:01:38.118Z,15.50
2022-11-03T23:04:09.535Z,15.35
2022-11-03T23:06:41.945Z,16.23
2022-11-03T23:09:12.943Z,16.17
2022-11-03T23:11:43.110Z,15.82
2022-11-03T23:14:14.325Z,15.03
2022-11-03T23:16:48.006Z,15.73
2022-11-03T23:19:31.419Z,15.75
2022-11-03T23:22:02.566Z,15.65
2022-11-03T23:24:45.646Z,15.75
2022-11-03T23:27:16.737Z,15.18
2022-11-03T23:29:46.934Z,24.55
2022-11-03T23:32:19.847Z,14.95
2022-11-03T23:34:50.240Z,15.15
2022-11-03T23:37:20.464Z,14.80
2022-11-03T23:39:50.566Z,19.23
2022-11-03T23:42:20.724Z,15.13
2022-11-03T23:45:08.959Z,14.77
2022-11-03T23:47:54.093Z,14.23
2022-11-03T23:50:24.239Z,14.05
2022-11-03T23:52:54.306Z,14.43
2022-11-03T23:55:24.499Z,13.80
2022-11-03T23:58:07.304Z,13.48
